sensor_id;sensor_type;location;lat;lon;timestamp;P1;durP1;ratioP1;P2;durP2;ratioP2
76113;SDS011;64845;53.086;5.834;2023-03-31T00:01:35;43.67;;;5.53;;
76113;SDS011;64845;53.086;5.834;2023-03-31T00:04:06;35.08;;;5.75;;
76113;SDS011;64845;53.086;5.834;2023-03-31T00:06:37;46.60;;;6.00;;
76113;SDS011;64845;53.086;5.834;2023-03-31T00:09:06;36.58;;;4.43;;
76113;SDS011;64845;53.086;5.834;2023-03-31T00:11:33;41.47;;;5.63;;
76113;SDS011;64845;53.086;5.834;2023-03-31T00:13:58;38.28;;;5.63;;
76113;SDS011;64845;53.086;5.834;2023-03-31T00:16:24;32.80;;;5.05;;
76113;SDS011;64845;53.086;5.834;2023-03-31T00:18:50;39.67;;;5.35;;
76113;SDS011;64845;53.086;5.834;2023-03-31T00:21:17;41.80;;;5.88;;
76113;SDS011;64845;53.086;5.834;2023-03-31T00:23:54;46.45;;;5.93;;
76113;SDS011;64845;53.086;5.834;2023-03-31T00:26:26;41.15;;;5.00;;
76113;SDS011;64845;53.086;5.834;2023-03-31T00:28:53;42.17;;;5.10;;
76113;SDS011;64845;53.086;5.834;2023-03-31T00:31:19;53.03;;;6.47;;
76113;SDS011;64845;53.086;5.834;2023-03-31T00:33:46;43.28;;;5.15;;
76113;SDS011;64845;53.086;5.834;2023-03-31T00:36:12;35.88;;;5.97;;
76113;SDS011;64845;53.086;5.834;2023-03-31T00:38:41;46.30;;;6.18;;
76113;SDS011;64845;53.086;5.834;2023-03-31T00:41:10;46.47;;;5.53;;
76113;SDS011;64845;53.086;5.834;2023-03-31T00:43:36;43.78;;;5.82;;
76113;SDS011;64845;53.086;5.834;2023-03-31T00:48:39;38.90;;;5.18;;
76113;SDS011;64845;53.086;5.834;2023-03-31T00:51:17;38.22;;;5.97;;
76113;SDS011;64845;53.086;5.834;2023-03-31T00:53:47;40.80;;;5.10;;
76113;SDS011;64845;53.086;5.834;2023-03-31T00:56:19;43.70;;;6.18;;
76113;SDS011;64845;53.086;5.834;2023-03-31T00:58:45;39.75;;;5.55;;
76113;SDS011;64845;53.086;5.834;2023-03-31T01:01:15;30.45;;;4.85;;
76113;SDS011;64845;53.086;5.834;2023-03-31T01:03:44;35.53;;;5.38;;
76113;SDS011;64845;53.086;5.834;2023-03-31T01:06:12;40.80;;;5.15;;
76113;SDS011;64845;53.086;5.834;2023-03-31T01:08:40;26.63;;;4.75;;
76113;SDS011;64845;53.086;5.834;2023-03-31T01:11:08;30.08;;;5.10;;
76113;SDS011;64845;53.086;5.834;2023-03-31T01:13:37;29.85;;;4.88;;
76113;SDS011;64845;53.086;5.834;2023-03-31T01:16:04;42.75;;;5.88;;
76113;SDS011;64845;53.086;5.834;2023-03-31T01:18:30;29.63;;;5.05;;
76113;SDS011;64845;53.086;5.834;2023-03-31T01:43:03;27.88;;;4.10;;
76113;SDS011;64845;53.086;5.834;2023-03-31T01:48:16;25.60;;;3.90;;
76113;SDS011;64845;53.086;5.834;2023-03-31T01:50:57;33.83;;;3.90;;
76113;SDS011;64845;53.086;5.834;2023-03-31T01:53:47;37.30;;;4.75;;
76113;SDS011;64845;53.086;5.834;2023-03-31T01:56:27;29.95;;;4.45;;
76113;SDS011;64845;53.086;5.834;2023-03-31T02:01:24;38.20;;;4.60;;
76113;SDS011;64845;53.086;5.834;2023-03-31T02:04:04;35.33;;;5.55;;
76113;SDS011;64845;53.086;5.834;2023-03-31T02:06:39;31.02;;;3.67;;
76113;SDS011;64845;53.086;5.834;2023-03-31T02:09:18;35.60;;;4.00;;
76113;SDS011;64845;53.086;5.834;2023-03-31T02:11:46;24.92;;;3.15;;
76113;SDS011;64845;53.086;5.834;2023-03-31T02:14:14;27.50;;;3.90;;
76113;SDS011;64845;53.086;5.834;2023-03-31T02:16:45;27.63;;;4.07;;
76113;SDS011;64845;53.086;5.834;2023-03-31T02:19:14;41.13;;;4.45;;
76113;SDS011;64845;53.086;5.834;2023-03-31T02:21:43;32.40;;;4.65;;
76113;SDS011;64845;53.086;5.834;2023-03-31T02:24:12;26.63;;;4.07;;
76113;SDS011;64845;53.086;5.834;2023-03-31T02:26:51;31.00;;;4.28;;
76113;SDS011;64845;53.086;5.834;2023-03-31T02:29:21;25.35;;;4.47;;
76113;SDS011;64845;53.086;5.834;2023-03-31T02:32:00;31.27;;;4.57;;
76113;SDS011;64845;53.086;5.834;2023-03-31T02:34:48;34.85;;;5.00;;
76113;SDS011;64845;53.086;5.834;2023-03-31T02:37:13;40.03;;;5.78;;
76113;SDS011;64845;53.086;5.834;2023-03-31T02:39:40;27.42;;;4.30;;
76113;SDS011;64845;53.086;5.834;2023-03-31T02:42:08;32.80;;;4.80;;
76113;SDS011;64845;53.086;5.834;2023-03-31T02:44:35;28.42;;;4.53;;
76113;SDS011;64845;53.086;5.834;2023-03-31T02:47:02;33.75;;;4.38;;
76113;SDS011;64845;53.086;5.834;2023-03-31T02:49:30;31.33;;;4.60;;
76113;SDS011;64845;53.086;5.834;2023-03-31T02:55:08;29.58;;;3.83;;
76113;SDS011;64845;53.086;5.834;2023-03-31T03:05:37;28.45;;;3.40;;
76113;SDS011;64845;53.086;5.834;2023-03-31T03:13:35;25.98;;;4.13;;
76113;SDS011;64845;53.086;5.834;2023-03-31T03:16:21;24.80;;;3.58;;
76113;SDS011;64845;53.086;5.834;2023-03-31T03:18:58;22.73;;;4.50;;
76113;SDS011;64845;53.086;5.834;2023-03-31T03:21:26;40.83;;;4.75;;
76113;SDS011;64845;53.086;5.834;2023-03-31T03:23:52;24.42;;;4.38;;
76113;SDS011;64845;53.086;5.834;2023-03-31T03:26:18;27.45;;;4.40;;
76113;SDS011;64845;53.086;5.834;2023-03-31T03:28:48;28.20;;;4.00;;
76113;SDS011;64845;53.086;5.834;2023-03-31T03:31:15;21.98;;;3.97;;
76113;SDS011;64845;53.086;5.834;2023-03-31T03:33:40;23.50;;;4.53;;
76113;SDS011;64845;53.086;5.834;2023-03-31T03:36:06;26.27;;;4.13;;
76113;SDS011;64845;53.086;5.834;2023-03-31T03:38:32;24.10;;;4.45;;
76113;SDS011;64845;53.086;5.834;2023-03-31T03:40:57;24.13;;;4.05;;
76113;SDS011;64845;53.086;5.834;2023-03-31T03:43:23;25.98;;;4.22;;
76113;SDS011;64845;53.086;5.834;2023-03-31T03:45:48;20.27;;;4.45;;
76113;SDS011;64845;53.086;5.834;2023-03-31T03:48:14;22.55;;;4.85;;
76113;SDS011;64845;53.086;5.834;2023-03-31T03:50:40;24.02;;;4.93;;
76113;SDS011;64845;53.086;5.834;2023-03-31T03:53:06;19.77;;;4.97;;
76113;SDS011;64845;53.086;5.834;2023-03-31T03:55:32;25.25;;;5.32;;
76113;SDS011;64845;53.086;5.834;2023-03-31T03:57:58;18.48;;;4.70;;
76113;SDS011;64845;53.086;5.834;2023-03-31T04:00:23;18.38;;;5.50;;
76113;SDS011;64845;53.086;5.834;2023-03-31T04:02:49;21.42;;;5.13;;
76113;SDS011;64845;53.086;5.834;2023-03-31T04:05:14;20.35;;;5.07;;
76113;SDS011;64845;53.086;5.834;2023-03-31T04:07:40;20.52;;;4.93;;
76113;SDS011;64845;53.086;5.834;2023-03-31T04:10:05;21.00;;;5.38;;
76113;SDS011;64845;53.086;5.834;2023-03-31T04:12:33;22.90;;;5.40;;
76113;SDS011;64845;53.086;5.834;2023-03-31T04:15:01;21.30;;;5.55;;
76113;SDS011;64845;53.086;5.834;2023-03-31T04:17:27;14.57;;;4.90;;
76113;SDS011;64845;53.086;5.834;2023-03-31T04:20:06;23.98;;;4.85;;
76113;SDS011;64845;53.086;5.834;2023-03-31T04:22:33;17.95;;;4.63;;
76113;SDS011;64845;53.086;5.834;2023-03-31T04:25:05;25.15;;;5.68;;
76113;SDS011;64845;53.086;5.834;2023-03-31T04:27:39;26.30;;;5.97;;
76113;SDS011;64845;53.086;5.834;2023-03-31T04:30:11;17.63;;;5.10;;
76113;SDS011;64845;53.086;5.834;2023-03-31T04:32:38;26.00;;;5.97;;
76113;SDS011;64845;53.086;5.834;2023-03-31T04:35:03;18.10;;;5.05;;
76113;SDS011;64845;53.086;5.834;2023-03-31T04:37:29;18.42;;;5.68;;
76113;SDS011;64845;53.086;5.834;2023-03-31T04:39:59;25.10;;;6.05;;
76113;SDS011;64845;53.086;5.834;2023-03-31T04:42:30;24.65;;;6.07;;
76113;SDS011;64845;53.086;5.834;2023-03-31T04:44:55;23.42;;;6.10;;
76113;SDS011;64845;53.086;5.834;2023-03-31T04:47:21;18.60;;;5.65;;
76113;SDS011;64845;53.086;5.834;2023-03-31T04:49:46;20.20;;;5.60;;
76113;SDS011;64845;53.086;5.834;2023-03-31T04:52:12;21.02;;;6.07;;
76113;SDS011;64845;53.086;5.834;2023-03-31T04:54:37;19.58;;;6.22;;
76113;SDS011;64845;53.086;5.834;2023-03-31T04:57:02;23.35;;;6.25;;
76113;SDS011;64845;53.086;5.834;2023-03-31T04:59:28;20.58;;;6.43;;
76113;SDS011;64845;53.086;5.834;2023-03-31T05:01:53;20.80;;;6.30;;
76113;SDS011;64845;53.086;5.834;2023-03-31T05:04:18;20.20;;;6.50;;
76113;SDS011;64845;53.086;5.834;2023-03-31T05:06:44;21.67;;;6.70;;
76113;SDS011;64845;53.086;5.834;2023-03-31T05:09:09;20.75;;;6.40;;
76113;SDS011;64845;53.086;5.834;2023-03-31T05:11:35;15.70;;;6.50;;
76113;SDS011;64845;53.086;5.834;2023-03-31T05:14:00;20.70;;;6.78;;
76113;SDS011;64845;53.086;5.834;2023-03-31T05:16:26;21.08;;;7.40;;
76113;SDS011;64845;53.086;5.834;2023-03-31T05:18:51;21.00;;;7.72;;
76113;SDS011;64845;53.086;5.834;2023-03-31T05:21:20;24.00;;;7.65;;
76113;SDS011;64845;53.086;5.834;2023-03-31T05:23:46;19.08;;;7.07;;
76113;SDS011;64845;53.086;5.834;2023-03-31T05:26:11;19.77;;;8.18;;
76113;SDS011;64845;53.086;5.834;2023-03-31T05:28:37;15.60;;;7.18;;
76113;SDS011;64845;53.086;5.834;2023-03-31T05:31:03;16.90;;;6.45;;
76113;SDS011;64845;53.086;5.834;2023-03-31T05:33:30;19.38;;;6.50;;
76113;SDS011;64845;53.086;5.834;2023-03-31T05:35:56;22.60;;;7.43;;
76113;SDS011;64845;53.086;5.834;2023-03-31T05:38:32;18.05;;;7.00;;
76113;SDS011;64845;53.086;5.834;2023-03-31T05:40:58;17.42;;;6.90;;
76113;SDS011;64845;53.086;5.834;2023-03-31T05:43:24;22.55;;;7.35;;
76113;SDS011;64845;53.086;5.834;2023-03-31T05:45:50;24.77;;;6.95;;
76113;SDS011;64845;53.086;5.834;2023-03-31T05:48:15;21.88;;;8.23;;
76113;SDS011;64845;53.086;5.834;2023-03-31T05:50:41;19.85;;;7.95;;
76113;SDS011;64845;53.086;5.834;2023-03-31T05:53:07;26.45;;;8.73;;
76113;SDS011;64845;53.086;5.834;2023-03-31T05:55:34;24.83;;;9.60;;
76113;SDS011;64845;53.086;5.834;2023-03-31T05:58:00;19.90;;;8.82;;
76113;SDS011;64845;53.086;5.834;2023-03-31T06:00:25;24.65;;;9.43;;
76113;SDS011;64845;53.086;5.834;2023-03-31T06:02:50;16.35;;;7.93;;
76113;SDS011;64845;53.086;5.834;2023-03-31T06:05:16;19.05;;;7.15;;
76113;SDS011;64845;53.086;5.834;2023-03-31T06:07:41;22.23;;;7.70;;
76113;SDS011;64845;53.086;5.834;2023-03-31T06:10:07;18.73;;;6.68;;
76113;SDS011;64845;53.086;5.834;2023-03-31T06:12:34;16.08;;;7.10;;
76113;SDS011;64845;53.086;5.834;2023-03-31T06:15:00;14.95;;;6.10;;
76113;SDS011;64845;53.086;5.834;2023-03-31T06:17:25;16.00;;;6.15;;
76113;SDS011;64845;53.086;5.834;2023-03-31T06:19:50;16.75;;;5.80;;
76113;SDS011;64845;53.086;5.834;2023-03-31T06:22:16;13.68;;;5.35;;
76113;SDS011;64845;53.086;5.834;2023-03-31T06:24:41;11.57;;;4.55;;
76113;SDS011;64845;53.086;5.834;2023-03-31T06:27:06;11.85;;;4.43;;
76113;SDS011;64845;53.086;5.834;2023-03-31T06:29:32;11.18;;;4.63;;
76113;SDS011;64845;53.086;5.834;2023-03-31T06:31:57;14.68;;;4.10;;
76113;SDS011;64845;53.086;5.834;2023-03-31T06:34:23;10.50;;;3.97;;
76113;SDS011;64845;53.086;5.834;2023-03-31T06:36:48;12.73;;;4.55;;
76113;SDS011;64845;53.086;5.834;2023-03-31T06:39:13;10.30;;;3.95;;
76113;SDS011;64845;53.086;5.834;2023-03-31T06:41:39;10.27;;;3.60;;
76113;SDS011;64845;53.086;5.834;2023-03-31T06:44:04;11.30;;;3.58;;
76113;SDS011;64845;53.086;5.834;2023-03-31T06:46:30;10.35;;;3.08;;
76113;SDS011;64845;53.086;5.834;2023-03-31T06:48:55;12.73;;;3.83;;
76113;SDS011;64845;53.086;5.834;2023-03-31T06:51:21;14.77;;;3.65;;
76113;SDS011;64845;53.086;5.834;2023-03-31T06:53:46;10.73;;;4.00;;
76113;SDS011;64845;53.086;5.834;2023-03-31T06:56:11;9.40;;;4.22;;
76113;SDS011;64845;53.086;5.834;2023-03-31T06:58:37;10.05;;;4.35;;
76113;SDS011;64845;53.086;5.834;2023-03-31T07:01:03;11.52;;;3.97;;
76113;SDS011;64845;53.086;5.834;2023-03-31T07:03:29;12.93;;;4.03;;
76113;SDS011;64845;53.086;5.834;2023-03-31T07:05:56;7.70;;;3.50;;
76113;SDS011;64845;53.086;5.834;2023-03-31T07:08:21;9.98;;;3.33;;
76113;SDS011;64845;53.086;5.834;2023-03-31T07:10:48;7.13;;;2.60;;
76113;SDS011;64845;53.086;5.834;2023-03-31T07:13:17;7.82;;;2.53;;
76113;SDS011;64845;53.086;5.834;2023-03-31T07:15:43;6.18;;;2.22;;
76113;SDS011;64845;53.086;5.834;2023-03-31T07:18:12;8.00;;;2.42;;
76113;SDS011;64845;53.086;5.834;2023-03-31T07:20:39;10.43;;;2.40;;
76113;SDS011;64845;53.086;5.834;2023-03-31T07:23:05;8.68;;;2.60;;
76113;SDS011;64845;53.086;5.834;2023-03-31T07:25:32;7.90;;;2.30;;
76113;SDS011;64845;53.086;5.834;2023-03-31T07:27:58;9.35;;;2.85;;
76113;SDS011;64845;53.086;5.834;2023-03-31T07:30:23;7.18;;;2.72;;
76113;SDS011;64845;53.086;5.834;2023-03-31T07:32:49;8.25;;;2.63;;
76113;SDS011;64845;53.086;5.834;2023-03-31T07:35:16;4.85;;;3.15;;
76113;SDS011;64845;53.086;5.834;2023-03-31T07:37:42;8.23;;;3.30;;
76113;SDS011;64845;53.086;5.834;2023-03-31T07:40:11;6.25;;;3.15;;
76113;SDS011;64845;53.086;5.834;2023-03-31T07:42:39;5.78;;;3.70;;
76113;SDS011;64845;53.086;5.834;2023-03-31T07:45:05;7.55;;;3.60;;
76113;SDS011;64845;53.086;5.834;2023-03-31T07:47:31;11.20;;;3.83;;
76113;SDS011;64845;53.086;5.834;2023-03-31T07:49:57;10.05;;;5.05;;
76113;SDS011;64845;53.086;5.834;2023-03-31T07:52:22;11.18;;;4.18;;
76113;SDS011;64845;53.086;5.834;2023-03-31T07:54:48;8.32;;;4.50;;
76113;SDS011;64845;53.086;5.834;2023-03-31T07:57:13;10.00;;;4.45;;
76113;SDS011;64845;53.086;5.834;2023-03-31T07:59:40;10.75;;;4.10;;
76113;SDS011;64845;53.086;5.834;2023-03-31T08:02:06;14.40;;;4.25;;
76113;SDS011;64845;53.086;5.834;2023-03-31T08:04:31;10.63;;;4.18;;
76113;SDS011;64845;53.086;5.834;2023-03-31T08:06:57;14.23;;;4.80;;
76113;SDS011;64845;53.086;5.834;2023-03-31T08:09:22;12.20;;;4.55;;
76113;SDS011;64845;53.086;5.834;2023-03-31T08:11:48;10.05;;;4.25;;
76113;SDS011;64845;53.086;5.834;2023-03-31T08:14:13;10.48;;;4.35;;
76113;SDS011;64845;53.086;5.834;2023-03-31T08:16:39;11.52;;;4.40;;
76113;SDS011;64845;53.086;5.834;2023-03-31T08:19:05;10.43;;;3.42;;
76113;SDS011;64845;53.086;5.834;2023-03-31T08:21:30;11.73;;;3.88;;
76113;SDS011;64845;53.086;5.834;2023-03-31T08:23:56;9.95;;;3.85;;
76113;SDS011;64845;53.086;5.834;2023-03-31T08:26:21;8.60;;;3.55;;
76113;SDS011;64845;53.086;5.834;2023-03-31T08:28:49;9.10;;;3.28;;
76113;SDS011;64845;53.086;5.834;2023-03-31T08:31:16;9.32;;;3.45;;
76113;SDS011;64845;53.086;5.834;2023-03-31T08:33:43;11.10;;;3.38;;
76113;SDS011;64845;53.086;5.834;2023-03-31T08:36:09;11.05;;;3.15;;
76113;SDS011;64845;53.086;5.834;2023-03-31T08:38:36;8.75;;;3.58;;
76113;SDS011;64845;53.086;5.834;2023-03-31T08:41:06;9.18;;;3.30;;
76113;SDS011;64845;53.086;5.834;2023-03-31T08:43:43;9.15;;;3.40;;
76113;SDS011;64845;53.086;5.834;2023-03-31T08:46:11;11.88;;;3.67;;
76113;SDS011;64845;53.086;5.834;2023-03-31T08:48:57;13.35;;;4.55;;
76113;SDS011;64845;53.086;5.834;2023-03-31T08:51:30;12.93;;;3.45;;
76113;SDS011;64845;53.086;5.834;2023-03-31T08:54:12;8.65;;;3.40;;
76113;SDS011;64845;53.086;5.834;2023-03-31T08:56:43;16.75;;;3.97;;
76113;SDS011;64845;53.086;5.834;2023-03-31T08:59:29;10.70;;;2.95;;
76113;SDS011;64845;53.086;5.834;2023-03-31T09:10:15;9.32;;;3.08;;
76113;SDS011;64845;53.086;5.834;2023-03-31T09:18:16;8.98;;;2.70;;
76113;SDS011;64845;53.086;5.834;2023-03-31T09:21:01;9.35;;;2.80;;
76113;SDS011;64845;53.086;5.834;2023-03-31T09:23:37;6.03;;;2.47;;
76113;SDS011;64845;53.086;5.834;2023-03-31T09:29:04;9.38;;;2.25;;
76113;SDS011;64845;53.086;5.834;2023-03-31T09:31:37;7.15;;;2.42;;
76113;SDS011;64845;53.086;5.834;2023-03-31T09:34:09;9.50;;;2.25;;
76113;SDS011;64845;53.086;5.834;2023-03-31T09:36:56;7.80;;;2.60;;
76113;SDS011;64845;53.086;5.834;2023-03-31T09:39:21;6.03;;;2.35;;
76113;SDS011;64845;53.086;5.834;2023-03-31T09:41:48;7.20;;;2.30;;
76113;SDS011;64845;53.086;5.834;2023-03-31T09:44:25;5.53;;;2.25;;
76113;SDS011;64845;53.086;5.834;2023-03-31T09:46:56;10.20;;;2.38;;
76113;SDS011;64845;53.086;5.834;2023-03-31T09:49:26;7.93;;;2.60;;
76113;SDS011;64845;53.086;5.834;2023-03-31T09:54:39;9.90;;;2.47;;
76113;SDS011;64845;53.086;5.834;2023-03-31T09:57:12;12.73;;;3.13;;
76113;SDS011;64845;53.086;5.834;2023-03-31T09:59:39;6.43;;;2.72;;
76113;SDS011;64845;53.086;5.834;2023-03-31T10:02:27;9.55;;;3.03;;
76113;SDS011;64845;53.086;5.834;2023-03-31T10:04:59;8.00;;;2.90;;
76113;SDS011;64845;53.086;5.834;2023-03-31T10:07:25;10.15;;;3.80;;
76113;SDS011;64845;53.086;5.834;2023-03-31T10:09:52;11.43;;;3.05;;
76113;SDS011;64845;53.086;5.834;2023-03-31T10:12:28;13.02;;;3.25;;
76113;SDS011;64845;53.086;5.834;2023-03-31T10:15:11;11.80;;;3.40;;
76113;SDS011;64845;53.086;5.834;2023-03-31T10:17:43;10.80;;;3.30;;
76113;SDS011;64845;53.086;5.834;2023-03-31T10:23:00;13.40;;;3.85;;
76113;SDS011;64845;53.086;5.834;2023-03-31T10:25:27;7.50;;;3.10;;
76113;SDS011;64845;53.086;5.834;2023-03-31T10:27:54;12.43;;;3.10;;
76113;SDS011;64845;53.086;5.834;2023-03-31T10:30:24;11.15;;;3.30;;
76113;SDS011;64845;53.086;5.834;2023-03-31T10:32:52;7.10;;;3.00;;
76113;SDS011;64845;53.086;5.834;2023-03-31T10:35:23;16.60;;;3.55;;
76113;SDS011;64845;53.086;5.834;2023-03-31T10:38:01;10.23;;;3.10;;
76113;SDS011;64845;53.086;5.834;2023-03-31T10:40:54;15.07;;;3.58;;
76113;SDS011;64845;53.086;5.834;2023-03-31T10:43:28;10.90;;;3.60;;
76113;SDS011;64845;53.086;5.834;2023-03-31T10:45:58;14.55;;;3.38;;
76113;SDS011;64845;53.086;5.834;2023-03-31T10:48:28;8.95;;;2.70;;
76113;SDS011;64845;53.086;5.834;2023-03-31T10:51:00;13.98;;;3.10;;
76113;SDS011;64845;53.086;5.834;2023-03-31T10:53:31;8.90;;;2.70;;
76113;SDS011;64845;53.086;5.834;2023-03-31T10:56:50;16.48;;;3.30;;
76113;SDS011;64845;53.086;5.834;2023-03-31T11:10:42;10.90;;;3.05;;
76113;SDS011;64845;53.086;5.834;2023-03-31T11:13:25;10.77;;;2.10;;
76113;SDS011;64845;53.086;5.834;2023-03-31T11:21:55;8.63;;;2.55;;
76113;SDS011;64845;53.086;5.834;2023-03-31T11:35:19;9.77;;;2.20;;
76113;SDS011;64845;53.086;5.834;2023-03-31T11:38:10;8.68;;;2.13;;
76113;SDS011;64845;53.086;5.834;2023-03-31T11:43:42;11.05;;;2.85;;
76113;SDS011;64845;53.086;5.834;2023-03-31T11:49:19;8.88;;;2.60;;
76113;SDS011;64845;53.086;5.834;2023-03-31T11:51:58;7.50;;;2.75;;
76113;SDS011;64845;53.086;5.834;2023-03-31T11:57:26;9.88;;;2.72;;
76113;SDS011;64845;53.086;5.834;2023-03-31T11:59:57;15.27;;;3.40;;
76113;SDS011;64845;53.086;5.834;2023-03-31T12:05:08;13.68;;;2.83;;
76113;SDS011;64845;53.086;5.834;2023-03-31T12:12:52;11.82;;;2.80;;
76113;SDS011;64845;53.086;5.834;2023-03-31T12:15:24;11.35;;;3.08;;
76113;SDS011;64845;53.086;5.834;2023-03-31T12:17:58;11.95;;;2.78;;
76113;SDS011;64845;53.086;5.834;2023-03-31T12:20:32;11.10;;;4.15;;
76113;SDS011;64845;53.086;5.834;2023-03-31T12:23:02;10.95;;;2.90;;
76113;SDS011;64845;53.086;5.834;2023-03-31T12:25:50;17.58;;;3.60;;
76113;SDS011;64845;53.086;5.834;2023-03-31T12:28:20;14.45;;;3.03;;
76113;SDS011;64845;53.086;5.834;2023-03-31T12:30:47;12.98;;;3.22;;
76113;SDS011;64845;53.086;5.834;2023-03-31T12:33:27;12.13;;;3.08;;
76113;SDS011;64845;53.086;5.834;2023-03-31T12:36:01;11.75;;;3.17;;
76113;SDS011;64845;53.086;5.834;2023-03-31T12:43:43;18.92;;;3.10;;
76113;SDS011;64845;53.086;5.834;2023-03-31T12:59:34;11.35;;;2.65;;
76113;SDS011;64845;53.086;5.834;2023-03-31T13:04:33;8.35;;;1.73;;
76113;SDS011;64845;53.086;5.834;2023-03-31T13:07:01;5.57;;;1.50;;
76113;SDS011;64845;53.086;5.834;2023-03-31T13:09:43;7.38;;;1.52;;
76113;SDS011;64845;53.086;5.834;2023-03-31T13:12:18;4.35;;;1.38;;
76113;SDS011;64845;53.086;5.834;2023-03-31T13:14:46;6.95;;;1.70;;
76113;SDS011;64845;53.086;5.834;2023-03-31T13:19:53;8.38;;;1.65;;
76113;SDS011;64845;53.086;5.834;2023-03-31T13:22:27;7.03;;;1.92;;
76113;SDS011;64845;53.086;5.834;2023-03-31T13:27:52;9.38;;;2.00;;
76113;SDS011;64845;53.086;5.834;2023-03-31T13:33:08;6.68;;;1.45;;
76113;SDS011;64845;53.086;5.834;2023-03-31T13:35:38;6.45;;;1.67;;
76113;SDS011;64845;53.086;5.834;2023-03-31T13:41:19;7.17;;;1.63;;
76113;SDS011;64845;53.086;5.834;2023-03-31T13:44:03;6.35;;;1.55;;
76113;SDS011;64845;53.086;5.834;2023-03-31T13:52:11;8.65;;;1.90;;
76113;SDS011;64845;53.086;5.834;2023-03-31T14:00:02;8.10;;;1.60;;
76113;SDS011;64845;53.086;5.834;2023-03-31T14:05:39;10.90;;;2.13;;
76113;SDS011;64845;53.086;5.834;2023-03-31T14:08:11;9.20;;;1.65;;
76113;SDS011;64845;53.086;5.834;2023-03-31T14:11:13;5.68;;;1.50;;
76113;SDS011;64845;53.086;5.834;2023-03-31T14:16:40;3.67;;;1.30;;
76113;SDS011;64845;53.086;5.834;2023-03-31T14:34:03;5.15;;;1.17;;
76113;SDS011;64845;53.086;5.834;2023-03-31T14:36:15;9.30;;;1.23;;
76113;SDS011;64845;53.086;5.834;2023-03-31T14:38:52;8.55;;;1.40;;
76113;SDS011;64845;53.086;5.834;2023-03-31T14:41:18;8.05;;;1.60;;
76113;SDS011;64845;53.086;5.834;2023-03-31T14:43:53;6.13;;;1.55;;
76113;SDS011;64845;53.086;5.834;2023-03-31T14:46:20;6.28;;;1.52;;
76113;SDS011;64845;53.086;5.834;2023-03-31T14:48:46;4.68;;;1.30;;
76113;SDS011;64845;53.086;5.834;2023-03-31T14:51:14;5.20;;;1.58;;
76113;SDS011;64845;53.086;5.834;2023-03-31T14:53:41;4.78;;;1.50;;
76113;SDS011;64845;53.086;5.834;2023-03-31T14:58:36;4.38;;;1.48;;
76113;SDS011;64845;53.086;5.834;2023-03-31T15:01:07;5.68;;;1.83;;
76113;SDS011;64845;53.086;5.834;2023-03-31T15:03:39;6.78;;;1.70;;
76113;SDS011;64845;53.086;5.834;2023-03-31T15:06:05;7.65;;;1.42;;
76113;SDS011;64845;53.086;5.834;2023-03-31T15:08:31;10.10;;;1.95;;
76113;SDS011;64845;53.086;5.834;2023-03-31T15:10:59;5.63;;;1.80;;
76113;SDS011;64845;53.086;5.834;2023-03-31T15:13:35;10.18;;;1.98;;
76113;SDS011;64845;53.086;5.834;2023-03-31T15:19:28;5.90;;;1.60;;
76113;SDS011;64845;53.086;5.834;2023-03-31T15:21:56;7.72;;;1.90;;
76113;SDS011;64845;53.086;5.834;2023-03-31T15:24:27;7.35;;;2.00;;
76113;SDS011;64845;53.086;5.834;2023-03-31T15:26:55;7.53;;;1.98;;
76113;SDS011;64845;53.086;5.834;2023-03-31T15:29:24;10.07;;;2.03;;
76113;SDS011;64845;53.086;5.834;2023-03-31T15:31:56;10.65;;;2.20;;
76113;SDS011;64845;53.086;5.834;2023-03-31T15:34:28;4.88;;;1.80;;
76113;SDS011;64845;53.086;5.834;2023-03-31T15:36:57;8.75;;;2.15;;
76113;SDS011;64845;53.086;5.834;2023-03-31T15:39:23;6.45;;;1.65;;
76113;SDS011;64845;53.086;5.834;2023-03-31T15:41:51;9.35;;;1.60;;
76113;SDS011;64845;53.086;5.834;2023-03-31T15:44:27;5.15;;;1.58;;
76113;SDS011;64845;53.086;5.834;2023-03-31T15:47:11;3.30;;;1.48;;
76113;SDS011;64845;53.086;5.834;2023-03-31T15:49:47;6.65;;;1.65;;
76113;SDS011;64845;53.086;5.834;2023-03-31T15:52:37;8.48;;;1.92;;
76113;SDS011;64845;53.086;5.834;2023-03-31T15:57:51;4.65;;;1.38;;
76113;SDS011;64845;53.086;5.834;2023-03-31T16:03:02;8.20;;;1.92;;
76113;SDS011;64845;53.086;5.834;2023-03-31T16:06:09;8.18;;;2.10;;
76113;SDS011;64845;53.086;5.834;2023-03-31T16:08:39;5.47;;;1.90;;
76113;SDS011;64845;53.086;5.834;2023-03-31T16:11:09;6.85;;;1.85;;
76113;SDS011;64845;53.086;5.834;2023-03-31T16:13:38;7.28;;;1.58;;
76113;SDS011;64845;53.086;5.834;2023-03-31T16:16:07;9.25;;;2.03;;
76113;SDS011;64845;53.086;5.834;2023-03-31T16:18:43;7.53;;;1.77;;
76113;SDS011;64845;53.086;5.834;2023-03-31T16:21:13;5.60;;;1.92;;
76113;SDS011;64845;53.086;5.834;2023-03-31T16:23:52;8.35;;;1.75;;
76113;SDS011;64845;53.086;5.834;2023-03-31T16:26:21;5.97;;;1.90;;
76113;SDS011;64845;53.086;5.834;2023-03-31T16:28:49;5.70;;;1.70;;
76113;SDS011;64845;53.086;5.834;2023-03-31T16:31:30;5.15;;;1.85;;
76113;SDS011;64845;53.086;5.834;2023-03-31T16:34:07;13.60;;;3.60;;
76113;SDS011;64845;53.086;5.834;2023-03-31T16:39:00;8.20;;;3.03;;
76113;SDS011;64845;53.086;5.834;2023-03-31T16:41:29;8.23;;;2.55;;
76113;SDS011;64845;53.086;5.834;2023-03-31T16:43:56;8.00;;;1.90;;
76113;SDS011;64845;53.086;5.834;2023-03-31T16:46:22;19.27;;;6.40;;
76113;SDS011;64845;53.086;5.834;2023-03-31T16:48:48;13.05;;;2.50;;
76113;SDS011;64845;53.086;5.834;2023-03-31T16:51:14;29.00;;;9.77;;
76113;SDS011;64845;53.086;5.834;2023-03-31T16:53:40;21.17;;;8.73;;
76113;SDS011;64845;53.086;5.834;2023-03-31T16:56:06;6.78;;;2.65;;
76113;SDS011;64845;53.086;5.834;2023-03-31T16:58:33;11.80;;;2.20;;
76113;SDS011;64845;53.086;5.834;2023-03-31T17:01:00;8.68;;;2.33;;
76113;SDS011;64845;53.086;5.834;2023-03-31T17:03:27;12.27;;;2.13;;
76113;SDS011;64845;53.086;5.834;2023-03-31T17:05:53;6.00;;;1.85;;
76113;SDS011;64845;53.086;5.834;2023-03-31T17:08:21;8.07;;;1.85;;
76113;SDS011;64845;53.086;5.834;2023-03-31T17:10:55;4.35;;;1.67;;
76113;SDS011;64845;53.086;5.834;2023-03-31T17:13:24;2.85;;;1.40;;
76113;SDS011;64845;53.086;5.834;2023-03-31T17:15:49;5.53;;;1.50;;
76113;SDS011;64845;53.086;5.834;2023-03-31T17:18:17;6.32;;;1.48;;
76113;SDS011;64845;53.086;5.834;2023-03-31T17:20:42;4.05;;;1.50;;
76113;SDS011;64845;53.086;5.834;2023-03-31T17:23:08;4.80;;;1.35;;
76113;SDS011;64845;53.086;5.834;2023-03-31T17:25:33;3.40;;;1.30;;
76113;SDS011;64845;53.086;5.834;2023-03-31T17:28:00;2.17;;;1.30;;
76113;SDS011;64845;53.086;5.834;2023-03-31T17:30:29;4.75;;;1.20;;
76113;SDS011;64845;53.086;5.834;2023-03-31T17:32:55;2.35;;;1.50;;
76113;SDS011;64845;53.086;5.834;2023-03-31T17:35:22;6.65;;;1.60;;
76113;SDS011;64845;53.086;5.834;2023-03-31T17:37:48;5.18;;;1.30;;
76113;SDS011;64845;53.086;5.834;2023-03-31T17:40:17;2.67;;;1.45;;
76113;SDS011;64845;53.086;5.834;2023-03-31T17:42:50;3.60;;;1.30;;
76113;SDS011;64845;53.086;5.834;2023-03-31T17:45:15;4.63;;;1.40;;
76113;SDS011;64845;53.086;5.834;2023-03-31T17:47:41;3.70;;;1.50;;
76113;SDS011;64845;53.086;5.834;2023-03-31T17:50:09;6.15;;;1.45;;
76113;SDS011;64845;53.086;5.834;2023-03-31T17:52:35;3.67;;;1.30;;
76113;SDS011;64845;53.086;5.834;2023-03-31T17:55:02;2.88;;;1.30;;
76113;SDS011;64845;53.086;5.834;2023-03-31T17:57:28;3.65;;;1.50;;
76113;SDS011;64845;53.086;5.834;2023-03-31T17:59:54;6.90;;;1.40;;
76113;SDS011;64845;53.086;5.834;2023-03-31T18:02:20;5.35;;;1.98;;
76113;SDS011;64845;53.086;5.834;2023-03-31T18:04:46;4.30;;;2.17;;
76113;SDS011;64845;53.086;5.834;2023-03-31T18:07:12;4.38;;;2.00;;